Thunder radar more information blitzortung!


Radar de pluja more information rain snow radar


Visita la nostra xarxa de llocs de meteo:

Template documentation
and downloads

And another site



No particular awareness of the weather is required.    There are no Weather-warnings

Pagina Historial Weather Underground text

Diari Resum Juny 20, 2016 Unitats:  Mètric    Imperial   Tant
« Previous Dia
SegĂźent Dia »
Diari Setmana Mensual Anual Personalitzada
  Maxima: Minima: Media:
Temperatura: 27.8 °C 13.0 °C 22.2 °C
Punt de rosada: 12.3 °C 6.4 °C 9.9 °C
Humitat: 74 % 28 % 47 %
Wind Speed: 18.5 km/h 0.0 km/h 6.7 km/h
RĂ fegues de vent: 18.5 km/h - -
Vent:- - SSW
Pression baro: 1022.9 hPa 1018.8 hPa -
Precipitacions: 0.0 mm    
Historical Graphs
 
 
Dades de taula per Juny 20, 2016
Temps Temperatura Punt de rosada Pression baro Vent Wind Speed RĂ fegues de vent Humitat Rainfall Rate (Hourly)
00:00 14.1 °C 8.5 °C 1021.9 hPa SW 1.6 km/h 3.2 km/h 69 % 0.0 mm
00:03 18.1 °C 9.2 °C 1022.9 hPa Calm   1.4 km/h 56 % 0.0 mm
00:09 18.1 °C 9.2 °C 1022.9 hPa Calm   1.4 km/h 56 % 0.0 mm
00:10 13.8 °C 8.4 °C 1021.9 hPa SW 1.6 km/h 3.2 km/h 70 % 0.0 mm
00:14 18.1 °C 9.2 °C 1022.9 hPa Calm   1.4 km/h 56 % 0.0 mm
00:20 13.6 °C 8.7 °C 1021.9 hPa SW 1.6 km/h 3.2 km/h 72 % 0.0 mm
00:30 13.6 °C 8.8 °C 1020.9 hPa SW 1.6 km/h 3.2 km/h 73 % 0.0 mm
00:40 13.8 °C 9.1 °C 1020.9 hPa SW 1.6 km/h 3.2 km/h 73 % 0.0 mm
00:50 13.8 °C 9.1 °C 1021.9 hPa SW 1.6 km/h 3.2 km/h 73 % 0.0 mm
01:00 13.8 °C 9.1 °C 1021.9 hPa SW 1.6 km/h 3.2 km/h 73 % 0.0 mm
01:10 13.4 °C 8.2 °C 1021.9 hPa SW 1.6 km/h 3.2 km/h 71 % 0.0 mm
01:20 13.0 °C 8.4 °C 1021.9 hPa SW 1.6 km/h 3.2 km/h 74 % 0.0 mm
01:30 13.0 °C 8.4 °C 1021.9 hPa SW 1.6 km/h 3.2 km/h 74 % 0.0 mm
01:40 13.1 °C 8.6 °C 1021.9 hPa SW 1.6 km/h 3.2 km/h 74 % 0.0 mm
01:50 13.2 °C 8.3 °C 1021.9 hPa SW 1.6 km/h 3.2 km/h 72 % 0.0 mm
02:00 13.1 °C 8.4 °C 1020.9 hPa SW 1.6 km/h 3.2 km/h 73 % 0.0 mm
02:10 13.3 °C 8.6 °C 1020.9 hPa SW 1.6 km/h 3.2 km/h 73 % 0.0 mm
02:20 14.0 °C 9.1 °C 1021.9 hPa SW 1.6 km/h 3.2 km/h 72 % 0.0 mm
02:30 14.3 °C 8.9 °C 1020.9 hPa SW 1.6 km/h 3.2 km/h 70 % 0.0 mm
02:40 15.0 °C 9.3 °C 1020.9 hPa SW 1.6 km/h 3.2 km/h 69 % 0.0 mm
02:50 15.5 °C 9.2 °C 1021.9 hPa SW 1.6 km/h 3.2 km/h 66 % 0.0 mm
03:00 15.6 °C 9.5 °C 1021.9 hPa SW 1.6 km/h 3.2 km/h 67 % 0.0 mm
03:10 15.7 °C 9.1 °C 1021.9 hPa SW 1.6 km/h 3.2 km/h 65 % 0.0 mm
03:20 15.8 °C 9.2 °C 1021.9 hPa SW 1.6 km/h 3.2 km/h 65 % 0.0 mm
03:40 16.8 °C 9.9 °C 1021.9 hPa SW 1.6 km/h 3.2 km/h 64 % 0.0 mm
03:50 17.1 °C 9.8 °C 1021.9 hPa South 3.2 km/h 6.4 km/h 62 % 0.0 mm
04:00 17.9 °C 10.3 °C 1021.9 hPa ESE 3.2 km/h 6.4 km/h 61 % 0.0 mm
04:10 18.8 °C 10.9 °C 1021.9 hPa Calm   6.4 km/h 60 % 0.0 mm
04:20 19.1 °C 10.7 °C 1021.9 hPa Calm   3.2 km/h 58 % 0.0 mm
04:30 19.3 °C 10.6 °C 1021.9 hPa NE 3.2 km/h 3.2 km/h 57 % 0.0 mm
04:40 19.3 °C 10.3 °C 1021.9 hPa North 1.6 km/h 3.2 km/h 56 % 0.0 mm
04:50 19.5 °C 10.2 °C 1021.9 hPa North 4.8 km/h 9.7 km/h 55 % 0.0 mm
05:00 19.5 °C 9.9 °C 1021.9 hPa NE 1.6 km/h 4.8 km/h 54 % 0.0 mm
05:10 20.4 °C 10.8 °C 1021.9 hPa WSW 1.6 km/h 6.4 km/h 54 % 0.0 mm
05:20 20.6 °C 10.4 °C 1021.9 hPa WSW 1.6 km/h 4.8 km/h 52 % 0.0 mm
05:30 21.3 °C 10.7 °C 1021.9 hPa SW 1.6 km/h 3.2 km/h 51 % 0.0 mm
05:40 21.8 °C 10.9 °C 1021.9 hPa SW 4.8 km/h 4.8 km/h 50 % 0.0 mm
10:45 21.9 °C 11.0 °C 1020.9 hPa WNW 5.6 km/h 5.6 km/h 50 % 0.0 mm
10:50 22.0 °C 10.5 °C 1020.9 hPa NE 2.6 km/h 4.2 km/h 48 % 0.0 mm
10:55 22.5 °C 11.2 °C 1020.9 hPa NE 2.6 km/h 4.2 km/h 49 % 0.0 mm
11:00 22.6 °C 11.3 °C 1021.9 hPa NE 2.6 km/h 4.2 km/h 49 % 0.0 mm
11:05 22.8 °C 11.2 °C 1021.9 hPa NE 2.6 km/h 4.2 km/h 48 % 0.0 mm
11:10 23.3 °C 11.0 °C 1021.9 hPa NE 2.6 km/h 4.2 km/h 46 % 0.0 mm
11:15 23.2 °C 10.9 °C 1021.9 hPa ESE 4.2 km/h 4.2 km/h 46 % 0.0 mm
11:20 23.8 °C 11.5 °C 1021.9 hPa ESE 4.2 km/h 4.2 km/h 46 % 0.0 mm
11:25 23.3 °C 10.3 °C 1021.9 hPa ESE 4.2 km/h 4.2 km/h 44 % 0.0 mm
11:30 23.6 °C 10.3 °C 1021.9 hPa ESE 4.2 km/h 4.2 km/h 43 % 0.0 mm
11:35 23.6 °C 9.9 °C 1021.9 hPa ESE 4.2 km/h 4.2 km/h 42 % 0.0 mm
11:40 24.1 °C 10.7 °C 1021.9 hPa ESE 4.2 km/h 4.2 km/h 43 % 0.0 mm
11:45 24.3 °C 10.6 °C 1021.9 hPa ESE 4.2 km/h 4.2 km/h 42 % 0.0 mm
11:50 23.9 °C 9.8 °C 1021.9 hPa ESE 4.2 km/h 4.2 km/h 41 % 0.0 mm
11:55 24.3 °C 10.2 °C 1021.9 hPa ESE 4.2 km/h 4.2 km/h 41 % 0.0 mm
12:00 24.6 °C 10.1 °C 1022.9 hPa ESE 4.2 km/h 4.2 km/h 40 % 0.0 mm
12:05 24.9 °C 10.4 °C 1022.9 hPa ESE 4.2 km/h 4.2 km/h 40 % 0.0 mm
12:10 24.9 °C 10.4 °C 1022.9 hPa ESE 4.2 km/h 4.2 km/h 40 % 0.0 mm
12:15 25.5 °C 10.5 °C 1021.9 hPa ESE 4.2 km/h 4.2 km/h 39 % 0.0 mm
12:20 25.7 °C 10.3 °C 1021.9 hPa ESE 4.2 km/h 4.2 km/h 38 % 0.0 mm
12:25 25.7 °C 9.9 °C 1021.9 hPa ESE 4.2 km/h 4.2 km/h 37 % 0.0 mm
12:30 25.7 °C 9.9 °C 1021.9 hPa East 6.1 km/h 6.1 km/h 37 % 0.0 mm
12:40 25.5 °C 9.7 °C 1021.9 hPa ESE 3.7 km/h 3.7 km/h 37 % 0.0 mm
12:45 26.0 °C 9.8 °C 1021.9 hPa SSE 5.6 km/h 5.6 km/h 36 % 0.0 mm
12:50 26.9 °C 10.6 °C 1021.9 hPa SW 7.4 km/h 7.4 km/h 36 % 0.0 mm
12:55 27.1 °C 10.3 °C 1021.9 hPa ESE 9.3 km/h 9.3 km/h 35 % 0.0 mm
13:00 27.1 °C 9.9 °C 1021.9 hPa South 9.3 km/h 9.3 km/h 34 % 0.0 mm
13:05 27.2 °C 9.1 °C 1021.9 hPa SSE 9.3 km/h 9.3 km/h 32 % 0.0 mm
13:10 26.8 °C 8.3 °C 1021.9 hPa South 9.3 km/h 9.3 km/h 31 % 0.0 mm
13:15 26.9 °C 7.8 °C 1019.9 hPa WSW 11.1 km/h 11.1 km/h 30 % 0.0 mm
13:20 27.0 °C 7.9 °C 1019.9 hPa SW 3.7 km/h 3.7 km/h 30 % 0.0 mm
13:25 27.7 °C 8.6 °C 1019.9 hPa SSW 13.0 km/h 13.0 km/h 30 % 0.0 mm
13:30 27.8 °C 8.1 °C 1019.9 hPa East 11.4 km/h 11.4 km/h 29 % 0.0 mm
13:35 27.5 °C 7.9 °C 1019.9 hPa WSW 7.4 km/h 7.4 km/h 29 % 0.0 mm
13:40 27.5 °C 7.3 °C 1019.9 hPa South 7.4 km/h 7.4 km/h 28 % 0.0 mm
13:45 27.4 °C 7.8 °C 1019.9 hPa East 11.1 km/h 11.1 km/h 29 % 0.0 mm
13:50 27.1 °C 7.6 °C 1019.9 hPa ENE 16.1 km/h 16.1 km/h 29 % 0.0 mm
13:55 26.4 °C 6.4 °C 1019.9 hPa ESE 10.0 km/h 10.0 km/h 28 % 0.0 mm
14:00 26.4 °C 6.4 °C 1019.9 hPa ENE 11.1 km/h 11.1 km/h 28 % 0.0 mm
14:05 26.2 °C 7.2 °C 1019.9 hPa SSE 9.3 km/h 9.3 km/h 30 % 0.0 mm
14:10 26.2 °C 7.2 °C 1019.9 hPa NE 16.7 km/h 16.7 km/h 30 % 0.0 mm
14:16 26.2 °C 7.2 °C 1019.9 hPa ESE 14.8 km/h 14.8 km/h 30 % 0.0 mm
14:21 26.2 °C 7.2 °C 1019.9 hPa ENE 10.0 km/h 10.0 km/h 30 % 0.0 mm
14:26 26.2 °C 7.2 °C 1019.9 hPa ESE 13.0 km/h 13.0 km/h 30 % 0.0 mm
14:31 25.7 °C 9.9 °C 1019.9 hPa East 16.7 km/h 16.7 km/h 37 % 0.0 mm
14:41 25.7 °C 10.3 °C 1019.9 hPa East 18.5 km/h 18.5 km/h 38 % 0.0 mm
14:46 25.7 °C 10.3 °C 1019.9 hPa East 18.5 km/h 18.5 km/h 38 % 0.0 mm
14:51 25.7 °C 10.3 °C 1019.9 hPa SSE 16.7 km/h 16.7 km/h 38 % 0.0 mm
14:56 25.7 °C 10.3 °C 1019.9 hPa ESE 14.8 km/h 14.8 km/h 38 % 0.0 mm
15:01 25.7 °C 10.3 °C 1019.9 hPa SSE 9.3 km/h 9.3 km/h 38 % 0.0 mm
15:06 25.7 °C 10.3 °C 1019.9 hPa ESE 14.8 km/h 14.8 km/h 38 % 0.0 mm
15:11 25.7 °C 10.3 °C 1019.9 hPa East 13.0 km/h 13.0 km/h 38 % 0.0 mm
15:16 25.7 °C 10.3 °C 1019.9 hPa NNE 14.8 km/h 14.8 km/h 38 % 0.0 mm
15:21 26.7 °C 11.2 °C 1019.9 hPa East 9.3 km/h 9.3 km/h 38 % 0.0 mm
15:26 27.1 °C 11.2 °C 1019.9 hPa WSW 14.8 km/h 14.8 km/h 37 % 0.0 mm
15:31 27.2 °C 11.2 °C 1019.9 hPa SW 13.0 km/h 13.0 km/h 37 % 0.0 mm
15:36 27.3 °C 11.3 °C 1019.9 hPa South 7.4 km/h 7.4 km/h 37 % 0.0 mm
15:41 27.5 °C 11.5 °C 1019.9 hPa ESE 5.6 km/h 5.6 km/h 37 % 0.0 mm
15:46 27.7 °C 11.7 °C 1019.9 hPa SSW 11.1 km/h 11.1 km/h 37 % 0.0 mm
15:51 27.7 °C 11.7 °C 1019.9 hPa SSW 14.8 km/h 14.8 km/h 37 % 0.0 mm
15:56 27.4 °C 11.8 °C 1019.9 hPa SSE 11.1 km/h 11.1 km/h 38 % 0.0 mm
16:01 27.1 °C 11.6 °C 1019.9 hPa WSW 9.3 km/h 9.7 km/h 38 % 0.0 mm
16:06 27.0 °C 11.4 °C 1019.9 hPa South 11.9 km/h 11.9 km/h 38 % 0.0 mm
16:11 26.9 °C 11.8 °C 1019.9 hPa WSW 9.3 km/h 9.3 km/h 39 % 0.0 mm
16:16 26.8 °C 11.7 °C 1019.9 hPa West 11.1 km/h 11.1 km/h 39 % 0.0 mm
16:21 27.1 °C 11.6 °C 1019.9 hPa SSW 15.8 km/h 15.8 km/h 38 % 0.0 mm
16:26 27.5 °C 12.3 °C 1019.9 hPa WSW 6.4 km/h 6.4 km/h 39 % 0.0 mm
16:31 27.6 °C 12.0 °C 1019.9 hPa SW 9.7 km/h 9.7 km/h 38 % 0.0 mm
16:36 27.7 °C 12.1 °C 1019.9 hPa SW 3.7 km/h 3.7 km/h 38 % 0.0 mm
16:41 27.5 °C 11.9 °C 1019.9 hPa SW 10.0 km/h 10.0 km/h 38 % 0.0 mm
16:46 27.4 °C 11.8 °C 1020.9 hPa NW 7.4 km/h 7.4 km/h 38 % 0.0 mm
16:51 27.4 °C 11.8 °C 1020.9 hPa SW 5.6 km/h 5.6 km/h 38 % 0.0 mm
16:56 27.2 °C 11.7 °C 1020.9 hPa East 14.8 km/h 14.8 km/h 38 % 0.0 mm
17:01 27.4 °C 11.8 °C 1019.9 hPa West 14.8 km/h 14.8 km/h 38 % 0.0 mm
17:06 27.3 °C 11.7 °C 1019.9 hPa WSW 11.1 km/h 11.1 km/h 38 % 0.0 mm
17:11 27.4 °C 11.8 °C 1019.9 hPa SSW 7.4 km/h 7.4 km/h 38 % 0.0 mm
17:16 27.6 °C 12.0 °C 1019.9 hPa East 5.6 km/h 5.8 km/h 38 % 0.0 mm
17:21 27.7 °C 12.1 °C 1019.9 hPa ESE 5.8 km/h 5.8 km/h 38 % 0.0 mm
17:26 27.3 °C 11.7 °C 1019.9 hPa WSW 9.3 km/h 9.3 km/h 38 % 0.0 mm
17:31 27.2 °C 11.7 °C 1019.9 hPa WSW 9.3 km/h 9.3 km/h 38 % 0.0 mm
17:36 27.4 °C 11.8 °C 1019.9 hPa WSW 13.0 km/h 13.0 km/h 38 % 0.0 mm
17:41 27.0 °C 11.4 °C 1019.9 hPa SW 13.0 km/h 13.0 km/h 38 % 0.0 mm
17:46 27.0 °C 11.4 °C 1019.9 hPa SW 18.5 km/h 18.5 km/h 38 % 0.0 mm
17:51 27.0 °C 11.4 °C 1019.9 hPa WSW 11.1 km/h 11.1 km/h 38 % 0.0 mm
17:56 26.9 °C 11.8 °C 1019.9 hPa SSW 11.1 km/h 11.1 km/h 39 % 0.0 mm
18:01 26.8 °C 11.7 °C 1019.9 hPa WSW 9.3 km/h 9.3 km/h 39 % 0.0 mm
18:06 26.7 °C 11.2 °C 1019.9 hPa SW 14.8 km/h 14.8 km/h 38 % 0.0 mm
18:11 26.6 °C 11.1 °C 1019.9 hPa WSW 11.1 km/h 11.1 km/h 38 % 0.0 mm
18:16 26.3 °C 10.8 °C 1019.9 hPa SW 7.4 km/h 7.4 km/h 38 % 0.0 mm
18:21 25.7 °C 10.3 °C 1019.9 hPa SW 13.0 km/h 13.0 km/h 38 % 0.0 mm
18:26 25.4 °C 10.1 °C 1019.9 hPa SSW 7.4 km/h 7.4 km/h 38 % 0.0 mm
18:31 25.1 °C 9.8 °C 1019.9 hPa SW 9.3 km/h 9.3 km/h 38 % 0.0 mm
18:36 25.1 °C 10.2 °C 1019.9 hPa SW 7.4 km/h 7.4 km/h 39 % 0.0 mm
18:41 24.9 °C 10.4 °C 1019.9 hPa SSW 9.3 km/h 9.3 km/h 40 % 0.0 mm
18:46 25.1 °C 10.2 °C 1019.9 hPa WNW 13.0 km/h 13.0 km/h 39 % 0.0 mm
18:51 25.3 °C 10.7 °C 1019.9 hPa WSW 9.3 km/h 9.3 km/h 40 % 0.0 mm
18:56 25.3 °C 10.7 °C 1019.9 hPa SSW 9.7 km/h 9.7 km/h 40 % 0.0 mm
19:01 25.4 °C 10.8 °C 1019.9 hPa WSW 7.4 km/h 7.4 km/h 40 % 0.0 mm
19:06 25.5 °C 10.9 °C 1019.9 hPa WSW 9.5 km/h 9.5 km/h 40 % 0.0 mm
19:11 25.2 °C 10.6 °C 1019.9 hPa WSW 9.5 km/h 9.5 km/h 40 % 0.0 mm
19:16 25.4 °C 10.8 °C 1019.9 hPa WSW 9.5 km/h 9.5 km/h 40 % 0.0 mm
19:20 18.7 °C 9.4 °C 1021.9 hPa SW 1.6 km/h 4.8 km/h 55 % 0.0 mm
19:21 25.1 °C 10.9 °C 1019.9 hPa WSW 9.5 km/h 9.5 km/h 41 % 0.0 mm
19:26 24.9 °C 11.1 °C 1019.9 hPa WSW 9.5 km/h 9.5 km/h 42 % 0.0 mm
19:30 18.6 °C 9.7 °C 1021.9 hPa NE 1.6 km/h 4.8 km/h 56 % 0.0 mm
19:31 25.1 °C 10.9 °C 1019.9 hPa WSW 9.5 km/h 9.5 km/h 41 % 0.0 mm
19:36 25.0 °C 10.8 °C 1019.9 hPa WSW 9.5 km/h 9.5 km/h 41 % 0.0 mm
19:40 18.5 °C 9.8 °C 1021.9 hPa NNE 3.2 km/h 4.8 km/h 57 % 0.0 mm
19:41 25.0 °C 10.8 °C 1019.9 hPa WSW 9.5 km/h 9.5 km/h 41 % 0.0 mm
19:46 24.6 °C 10.8 °C 1018.8 hPa WSW 9.5 km/h 9.5 km/h 42 % 0.0 mm
19:50 18.3 °C 9.6 °C 1022.9 hPa WSW 1.6 km/h 4.8 km/h 57 % 0.0 mm
19:51 24.4 °C 11.0 °C 1018.8 hPa WSW 9.5 km/h 9.5 km/h 43 % 0.0 mm
19:56 24.3 °C 10.9 °C 1018.8 hPa WSW 9.5 km/h 9.5 km/h 43 % 0.0 mm
20:00 18.2 °C 9.6 °C 1022.9 hPa SW 3.2 km/h 4.8 km/h 57 % 0.0 mm
20:01 24.1 °C 10.7 °C 1019.9 hPa WSW 9.5 km/h 9.5 km/h 43 % 0.0 mm
20:06 24.0 °C 11.0 °C 1019.9 hPa WSW 9.5 km/h 9.5 km/h 44 % 0.0 mm
20:10 18.1 °C 9.7 °C 1022.9 hPa WSW 3.2 km/h 3.2 km/h 58 % 0.0 mm
20:11 23.8 °C 11.2 °C 1019.9 hPa WSW 9.5 km/h 9.5 km/h 45 % 0.0 mm
20:16 23.8 °C 11.2 °C 1019.9 hPa WSW 9.5 km/h 9.5 km/h 45 % 0.0 mm
20:20 18.1 °C 9.7 °C 1022.9 hPa WSW 3.2 km/h 3.2 km/h 58 % 0.0 mm
20:26 23.4 °C 11.1 °C 1019.9 hPa WSW 9.5 km/h 9.5 km/h 46 % 0.0 mm
20:30 18.1 °C 9.9 °C 1021.9 hPa SW 3.2 km/h 3.2 km/h 59 % 0.0 mm
20:31 23.1 °C 11.2 °C 1019.9 hPa WSW 9.5 km/h 9.5 km/h 47 % 0.0 mm
20:36 23.0 °C 11.1 °C 1019.9 hPa WSW 9.5 km/h 9.5 km/h 47 % 0.0 mm
20:40 18.0 °C 9.9 °C 1021.9 hPa SW 3.2 km/h 3.2 km/h 59 % 0.0 mm
20:41 23.0 °C 10.8 °C 1019.9 hPa WSW 9.5 km/h 9.5 km/h 46 % 0.0 mm
20:46 22.8 °C 10.6 °C 1019.9 hPa WSW 9.5 km/h 9.5 km/h 46 % 0.0 mm
20:50 18.0 °C 9.9 °C 1022.9 hPa SW 3.2 km/h 3.2 km/h 59 % 0.0 mm
20:51 22.6 °C 10.4 °C 1019.9 hPa WSW 9.5 km/h 9.5 km/h 46 % 0.0 mm
20:56 22.6 °C 10.4 °C 1019.9 hPa WSW 9.5 km/h 9.5 km/h 46 % 0.0 mm
21:00 17.8 °C 9.7 °C 1022.9 hPa SW 3.2 km/h 3.2 km/h 59 % 0.0 mm
21:01 22.6 °C 10.4 °C 1019.9 hPa WSW 9.5 km/h 9.5 km/h 46 % 0.0 mm
21:06 22.6 °C 10.4 °C 1019.9 hPa WSW 9.5 km/h 9.5 km/h 46 % 0.0 mm
21:10 17.6 °C 9.5 °C 1022.9 hPa SW 3.2 km/h 3.2 km/h 59 % 0.0 mm
21:11 22.1 °C 9.9 °C 1019.9 hPa WSW 9.5 km/h 9.5 km/h 46 % 0.0 mm
21:17 21.9 °C 9.8 °C 1019.9 hPa WSW 9.5 km/h 9.5 km/h 46 % 0.0 mm
21:20 17.6 °C 9.7 °C 1021.9 hPa SW 3.2 km/h 3.2 km/h 60 % 0.0 mm
21:22 21.8 °C 9.7 °C 1019.9 hPa WSW 9.5 km/h 9.5 km/h 46 % 0.0 mm
21:27 21.6 °C 9.5 °C 1020.9 hPa WSW 9.5 km/h 9.5 km/h 46 % 0.0 mm
21:30 17.5 °C 9.7 °C 1022.9 hPa Calm   1.6 km/h 60 % 0.0 mm
21:32 21.5 °C 9.4 °C 1020.9 hPa WSW 9.5 km/h 9.5 km/h 46 % 0.0 mm
21:37 21.4 °C 8.9 °C 1020.9 hPa WSW 9.5 km/h 9.5 km/h 45 % 0.0 mm
21:40 17.4 °C 9.6 °C 1022.9 hPa Calm     60 % 0.0 mm
21:42 21.2 °C 8.8 °C 1020.9 hPa WSW 9.5 km/h 9.5 km/h 45 % 0.0 mm
21:47 21.1 °C 8.7 °C 1020.9 hPa WSW 9.5 km/h 9.5 km/h 45 % 0.0 mm
21:50 17.4 °C 9.6 °C 1022.9 hPa Calm     60 % 0.0 mm
21:52 21.0 °C 8.6 °C 1020.9 hPa WSW 9.5 km/h 9.5 km/h 45 % 0.0 mm
21:57 20.9 °C 8.8 °C 1020.9 hPa WSW 9.5 km/h 9.5 km/h 46 % 0.0 mm
22:00 17.3 °C 9.7 °C 1021.9 hPa Calm   1.6 km/h 61 % 0.0 mm
22:02 20.7 °C 8.7 °C 1020.9 hPa WSW 9.5 km/h 9.5 km/h 46 % 0.0 mm
22:07 20.6 °C 8.6 °C 1020.9 hPa SSW 5.6 km/h 5.6 km/h 46 % 0.0 mm
22:10 17.1 °C 9.5 °C 1021.9 hPa ENE 1.6 km/h 1.6 km/h 61 % 0.0 mm
22:12 20.5 °C 8.5 °C 1020.9 hPa SW 4.7 km/h 5.8 km/h 46 % 0.0 mm
22:17 20.5 °C 8.5 °C 1020.9 hPa SW 4.7 km/h 5.8 km/h 46 % 0.0 mm
22:20 17.0 °C 9.4 °C 1021.9 hPa NE 1.6 km/h   61 % 0.0 mm
22:22 20.4 °C 8.4 °C 1020.9 hPa SW 4.7 km/h 5.8 km/h 46 % 0.0 mm
22:27 20.3 °C 8.6 °C 1021.9 hPa SW 4.7 km/h 5.8 km/h 47 % 0.0 mm
22:30 17.0 °C 9.4 °C 1021.9 hPa Calm     61 % 0.0 mm
22:32 20.2 °C 8.5 °C 1021.9 hPa SW 4.7 km/h 5.8 km/h 47 % 0.0 mm
22:37 20.1 °C 8.4 °C 1021.9 hPa SW 4.7 km/h 5.8 km/h 47 % 0.0 mm
22:40 16.8 °C 9.5 °C 1021.9 hPa Calm     62 % 0.0 mm
22:42 20.1 °C 8.4 °C 1021.9 hPa SW 4.7 km/h 5.8 km/h 47 % 0.0 mm
22:47 19.9 °C 8.2 °C 1021.9 hPa SW 4.7 km/h 5.8 km/h 47 % 0.0 mm
22:50 16.5 °C 9.2 °C 1021.9 hPa Calm     62 % 0.0 mm
22:52 19.9 °C 8.6 °C 1021.9 hPa SW 5.6 km/h 5.6 km/h 48 % 0.0 mm
22:57 19.8 °C 8.4 °C 1021.9 hPa SW 5.6 km/h 5.6 km/h 48 % 0.0 mm
23:00 16.4 °C 9.3 °C 1021.9 hPa Calm     63 % 0.0 mm
23:02 19.7 °C 8.4 °C 1021.9 hPa SW 5.6 km/h 5.6 km/h 48 % 0.0 mm
23:07 19.7 °C 8.4 °C 1021.9 hPa SW 5.6 km/h 5.6 km/h 48 % 0.0 mm
23:10 16.6 °C 9.5 °C 1021.9 hPa Calm     63 % 0.0 mm
23:12 19.7 °C 8.4 °C 1021.9 hPa SW 5.6 km/h 5.6 km/h 48 % 0.0 mm
23:17 19.6 °C 8.6 °C 1021.9 hPa SW 5.6 km/h 5.6 km/h 49 % 0.0 mm
23:20 16.2 °C 9.2 °C 1021.9 hPa NE 1.6 km/h 1.6 km/h 63 % 0.0 mm
23:22 19.6 °C 8.6 °C 1021.9 hPa SW 5.6 km/h 5.6 km/h 49 % 0.0 mm
23:27 19.4 °C 8.4 °C 1020.9 hPa SW 5.6 km/h 5.6 km/h 49 % 0.0 mm
23:30 16.0 °C 8.9 °C 1021.9 hPa WNW 1.6 km/h   63 % 0.0 mm
23:32 19.4 °C 8.4 °C 1020.9 hPa SW 5.6 km/h 5.6 km/h 49 % 0.0 mm
23:37 19.4 °C 8.4 °C 1020.9 hPa SW 5.6 km/h 5.6 km/h 49 % 0.0 mm
23:42 19.2 °C 8.5 °C 1021.9 hPa SW 5.6 km/h 5.6 km/h 50 % 0.0 mm
23:47 19.1 °C 8.7 °C 1021.9 hPa SW 5.6 km/h 5.6 km/h 51 % 0.0 mm
23:50 15.6 °C 8.6 °C 1021.9 hPa West 1.6 km/h   63 % 0.0 mm
23:52 19.1 °C 8.7 °C 1021.9 hPa SW 5.6 km/h 5.6 km/h 51 % 0.0 mm
23:57 19.0 °C 8.9 °C 1021.9 hPa SW 5.6 km/h 5.6 km/h 52 % 0.0 mm
Meteo Sesrovires
Elogis d' Weather Underground - 3.75 mb

Guio original per  Jim McMurry - jmcmurry@mwt.net Adaptat per a la plantilla per  Wim van der Kuil - Leuven-Template.eu

Trobareu la nostra informacio del temps tambe a:

Weather Underground

AWEKAS